sensor_id;sensor_type;location;lat;lon;timestamp;temperature;humidity
66873;HTU21D;53781;51.090;5.884;2022-08-23T00:00:06;21.00;64.43
66873;HTU21D;53781;51.090;5.884;2022-08-23T00:00:23;20.99;64.41
66873;HTU21D;53781;51.090;5.884;2022-08-23T00:00:38;21.00;64.44
66873;HTU21D;53781;51.090;5.884;2022-08-23T00:00:53;21.00;64.43
66873;HTU21D;53781;51.090;5.884;2022-08-23T00:01:13;20.99;64.45
66873;HTU21D;53781;51.090;5.884;2022-08-23T00:01:31;20.99;64.42
66873;HTU21D;53781;51.090;5.884;2022-08-23T00:01:49;20.99;64.43
66873;HTU21D;53781;51.090;5.884;2022-08-23T00:02:07;20.98;64.43
66873;HTU21D;53781;51.090;5.884;2022-08-23T00:02:22;20.96;64.43
66873;HTU21D;53781;51.090;5.884;2022-08-23T00:02:37;20.96;64.43
66873;HTU21D;53781;51.090;5.884;2022-08-23T00:02:52;20.96;64.47
66873;HTU21D;53781;51.090;5.884;2022-08-23T00:03:07;20.96;64.50
66873;HTU21D;53781;51.090;5.884;2022-08-23T00:03:21;20.95;64.53
66873;HTU21D;53781;51.090;5.884;2022-08-23T00:03:38;20.93;64.51
66873;HTU21D;53781;51.090;5.884;2022-08-23T00:03:55;20.94;64.58
66873;HTU21D;53781;51.090;5.884;2022-08-23T00:04:15;20.92;64.59
66873;HTU21D;53781;51.090;5.884;2022-08-23T00:04:41;20.93;64.59
66873;HTU21D;53781;51.090;5.884;2022-08-23T00:04:56;20.92;64.59
66873;HTU21D;53781;51.090;5.884;2022-08-23T00:05:11;20.92;64.65
66873;HTU21D;53781;51.090;5.884;2022-08-23T00:05:26;20.93;64.63
66873;HTU21D;53781;51.090;5.884;2022-08-23T00:05:41;20.91;64.66
66873;HTU21D;53781;51.090;5.884;2022-08-23T00:05:55;20.92;64.66
66873;HTU21D;53781;51.090;5.884;2022-08-23T00:06:10;20.92;64.66
66873;HTU21D;53781;51.090;5.884;2022-08-23T00:06:26;20.93;64.66
66873;HTU21D;53781;51.090;5.884;2022-08-23T00:06:42;20.91;64.63
66873;HTU21D;53781;51.090;5.884;2022-08-23T00:06:58;20.90;64.63
66873;HTU21D;53781;51.090;5.884;2022-08-23T00:07:14;20.90;64.59
66873;HTU21D;53781;51.090;5.884;2022-08-23T00:07:29;20.89;64.64
66873;HTU21D;53781;51.090;5.884;2022-08-23T00:07:43;20.90;64.67
66873;HTU21D;53781;51.090;5.884;2022-08-23T00:07:59;20.89;64.71
66873;HTU21D;53781;51.090;5.884;2022-08-23T00:08:13;20.88;64.68
66873;HTU21D;53781;51.090;5.884;2022-08-23T00:08:28;20.88;64.66
66873;HTU21D;53781;51.090;5.884;2022-08-23T00:08:44;20.88;64.69
66873;HTU21D;53781;51.090;5.884;2022-08-23T00:09:03;20.87;64.69
66873;HTU21D;53781;51.090;5.884;2022-08-23T00:09:20;20.89;64.70
66873;HTU21D;53781;51.090;5.884;2022-08-23T00:09:35;20.85;64.72
66873;HTU21D;53781;51.090;5.884;2022-08-23T00:09:50;20.87;64.69
66873;HTU21D;53781;51.090;5.884;2022-08-23T00:10:11;20.87;64.72
66873;HTU21D;53781;51.090;5.884;2022-08-23T00:10:27;20.87;64.69
66873;HTU21D;53781;51.090;5.884;2022-08-23T00:10:42;20.86;64.68
66873;HTU21D;53781;51.090;5.884;2022-08-23T00:10:59;20.85;64.71
66873;HTU21D;53781;51.090;5.884;2022-08-23T00:11:45;20.83;64.64
66873;HTU21D;53781;51.090;5.884;2022-08-23T00:12:05;20.79;64.72
66873;HTU21D;53781;51.090;5.884;2022-08-23T00:12:21;20.83;64.79
66873;HTU21D;53781;51.090;5.884;2022-08-23T00:12:37;20.81;64.72
66873;HTU21D;53781;51.090;5.884;2022-08-23T00:12:51;20.83;64.75
66873;HTU21D;53781;51.090;5.884;2022-08-23T00:13:06;20.80;64.80
66873;HTU21D;53781;51.090;5.884;2022-08-23T00:13:21;20.79;64.82
66873;HTU21D;53781;51.090;5.884;2022-08-23T00:13:36;20.77;64.85
66873;HTU21D;53781;51.090;5.884;2022-08-23T00:13:51;20.78;64.82
66873;HTU21D;53781;51.090;5.884;2022-08-23T00:14:10;20.77;64.77
66873;HTU21D;53781;51.090;5.884;2022-08-23T00:14:29;20.76;64.80
66873;HTU21D;53781;51.090;5.884;2022-08-23T00:14:49;20.76;64.81
66873;HTU21D;53781;51.090;5.884;2022-08-23T00:15:06;20.74;64.83
66873;HTU21D;53781;51.090;5.884;2022-08-23T00:15:21;20.76;64.90
66873;HTU21D;53781;51.090;5.884;2022-08-23T00:15:36;20.72;64.83
66873;HTU21D;53781;51.090;5.884;2022-08-23T00:15:51;20.74;64.92
66873;HTU21D;53781;51.090;5.884;2022-08-23T00:16:09;20.72;64.91
66873;HTU21D;53781;51.090;5.884;2022-08-23T00:16:24;20.73;64.95
66873;HTU21D;53781;51.090;5.884;2022-08-23T00:16:40;20.70;64.98
66873;HTU21D;53781;51.090;5.884;2022-08-23T00:16:56;20.71;64.97
66873;HTU21D;53781;51.090;5.884;2022-08-23T00:17:11;20.69;64.98
66873;HTU21D;53781;51.090;5.884;2022-08-23T00:17:26;20.68;65.01
66873;HTU21D;53781;51.090;5.884;2022-08-23T00:17:41;20.68;65.00
66873;HTU21D;53781;51.090;5.884;2022-08-23T00:17:55;20.69;65.09
66873;HTU21D;53781;51.090;5.884;2022-08-23T00:18:10;20.66;65.08
66873;HTU21D;53781;51.090;5.884;2022-08-23T00:18:25;20.68;65.08
66873;HTU21D;53781;51.090;5.884;2022-08-23T00:18:40;20.65;65.09
66873;HTU21D;53781;51.090;5.884;2022-08-23T00:18:55;20.64;65.09
66873;HTU21D;53781;51.090;5.884;2022-08-23T00:19:13;20.63;65.07
66873;HTU21D;53781;51.090;5.884;2022-08-23T00:19:28;20.64;65.11
66873;HTU21D;53781;51.090;5.884;2022-08-23T00:19:44;20.62;65.09
66873;HTU21D;53781;51.090;5.884;2022-08-23T00:19:59;20.63;65.17
66873;HTU21D;53781;51.090;5.884;2022-08-23T00:20:16;20.61;65.20
66873;HTU21D;53781;51.090;5.884;2022-08-23T00:20:31;20.60;65.20
66873;HTU21D;53781;51.090;5.884;2022-08-23T00:20:47;20.61;65.23
66873;HTU21D;53781;51.090;5.884;2022-08-23T00:21:01;20.60;65.30
66873;HTU21D;53781;51.090;5.884;2022-08-23T00:21:17;20.58;65.30
66873;HTU21D;53781;51.090;5.884;2022-08-23T00:21:32;20.58;65.33
66873;HTU21D;53781;51.090;5.884;2022-08-23T00:21:48;20.58;65.33
66873;HTU21D;53781;51.090;5.884;2022-08-23T00:22:05;20.56;65.37
66873;HTU21D;53781;51.090;5.884;2022-08-23T00:22:20;20.55;65.42
66873;HTU21D;53781;51.090;5.884;2022-08-23T00:22:36;20.55;65.44
66873;HTU21D;53781;51.090;5.884;2022-08-23T00:22:51;20.54;65.49
66873;HTU21D;53781;51.090;5.884;2022-08-23T00:23:06;20.54;65.47
66873;HTU21D;53781;51.090;5.884;2022-08-23T00:23:21;20.54;65.51
66873;HTU21D;53781;51.090;5.884;2022-08-23T00:23:36;20.54;65.53
66873;HTU21D;53781;51.090;5.884;2022-08-23T00:23:50;20.51;65.59
66873;HTU21D;53781;51.090;5.884;2022-08-23T00:24:08;20.53;65.57
66873;HTU21D;53781;51.090;5.884;2022-08-23T00:24:24;20.51;65.62
66873;HTU21D;53781;51.090;5.884;2022-08-23T00:24:39;20.53;65.65
66873;HTU21D;53781;51.090;5.884;2022-08-23T00:24:54;20.49;65.64
66873;HTU21D;53781;51.090;5.884;2022-08-23T00:25:10;20.50;65.66
66873;HTU21D;53781;51.090;5.884;2022-08-23T00:25:25;20.49;65.74
66873;HTU21D;53781;51.090;5.884;2022-08-23T00:25:41;20.48;65.70
66873;HTU21D;53781;51.090;5.884;2022-08-23T00:25:56;20.48;65.83
66873;HTU21D;53781;51.090;5.884;2022-08-23T00:26:11;20.47;65.82
66873;HTU21D;53781;51.090;5.884;2022-08-23T00:26:25;20.48;65.88
66873;HTU21D;53781;51.090;5.884;2022-08-23T00:27:21;20.46;65.92
66873;HTU21D;53781;51.090;5.884;2022-08-23T00:27:36;20.46;65.96
66873;HTU21D;53781;51.090;5.884;2022-08-23T00:27:51;20.47;65.93
66873;HTU21D;53781;51.090;5.884;2022-08-23T00:28:06;20.47;65.96
66873;HTU21D;53781;51.090;5.884;2022-08-23T00:28:22;20.46;66.01
66873;HTU21D;53781;51.090;5.884;2022-08-23T00:28:37;20.46;66.01
66873;HTU21D;53781;51.090;5.884;2022-08-23T00:28:52;20.46;65.98
66873;HTU21D;53781;51.090;5.884;2022-08-23T00:29:07;20.46;65.95
66873;HTU21D;53781;51.090;5.884;2022-08-23T00:29:25;20.47;65.96
66873;HTU21D;53781;51.090;5.884;2022-08-23T00:29:51;20.47;65.98
66873;HTU21D;53781;51.090;5.884;2022-08-23T00:30:09;20.48;65.98
66873;HTU21D;53781;51.090;5.884;2022-08-23T00:30:25;20.47;66.02
66873;HTU21D;53781;51.090;5.884;2022-08-23T00:30:40;20.45;65.98
66873;HTU21D;53781;51.090;5.884;2022-08-23T00:30:56;20.46;66.00
66873;HTU21D;53781;51.090;5.884;2022-08-23T00:31:11;20.45;65.99
66873;HTU21D;53781;51.090;5.884;2022-08-23T00:31:25;20.45;65.97
66873;HTU21D;53781;51.090;5.884;2022-08-23T00:31:40;20.46;65.98
66873;HTU21D;53781;51.090;5.884;2022-08-23T00:31:56;20.45;65.97
66873;HTU21D;53781;51.090;5.884;2022-08-23T00:32:13;20.46;65.96
66873;HTU21D;53781;51.090;5.884;2022-08-23T00:32:32;20.43;65.93
66873;HTU21D;53781;51.090;5.884;2022-08-23T00:32:47;20.45;65.91
66873;HTU21D;53781;51.090;5.884;2022-08-23T00:33:03;20.46;65.97
66873;HTU21D;53781;51.090;5.884;2022-08-23T00:33:17;20.44;65.95
66873;HTU21D;53781;51.090;5.884;2022-08-23T00:33:32;20.46;65.91
66873;HTU21D;53781;51.090;5.884;2022-08-23T00:33:47;20.45;65.94
66873;HTU21D;53781;51.090;5.884;2022-08-23T00:34:02;20.44;65.94
66873;HTU21D;53781;51.090;5.884;2022-08-23T00:34:17;20.43;65.95
66873;HTU21D;53781;51.090;5.884;2022-08-23T00:34:33;20.42;65.98
66873;HTU21D;53781;51.090;5.884;2022-08-23T00:34:48;20.43;65.99
66873;HTU21D;53781;51.090;5.884;2022-08-23T00:35:03;20.42;66.01
66873;HTU21D;53781;51.090;5.884;2022-08-23T00:35:20;20.41;66.03
66873;HTU21D;53781;51.090;5.884;2022-08-23T00:35:35;20.41;65.98
66873;HTU21D;53781;51.090;5.884;2022-08-23T00:35:50;20.42;66.04
66873;HTU21D;53781;51.090;5.884;2022-08-23T00:36:05;20.41;66.04
66873;HTU21D;53781;51.090;5.884;2022-08-23T00:36:20;20.41;65.99
66873;HTU21D;53781;51.090;5.884;2022-08-23T00:36:35;20.41;66.07
66873;HTU21D;53781;51.090;5.884;2022-08-23T00:36:50;20.37;66.07
66873;HTU21D;53781;51.090;5.884;2022-08-23T00:37:09;20.39;66.07
66873;HTU21D;53781;51.090;5.884;2022-08-23T00:37:25;20.39;66.04
66873;HTU21D;53781;51.090;5.884;2022-08-23T00:37:40;20.39;66.07
66873;HTU21D;53781;51.090;5.884;2022-08-23T00:37:56;20.39;66.14
66873;HTU21D;53781;51.090;5.884;2022-08-23T00:38:11;20.36;66.07
66873;HTU21D;53781;51.090;5.884;2022-08-23T00:38:45;20.35;66.04
66873;HTU21D;53781;51.090;5.884;2022-08-23T00:38:59;20.37;66.02
66873;HTU21D;53781;51.090;5.884;2022-08-23T00:39:15;20.35;66.04
66873;HTU21D;53781;51.090;5.884;2022-08-23T00:39:31;20.35;65.99
66873;HTU21D;53781;51.090;5.884;2022-08-23T00:39:47;20.37;65.98
66873;HTU21D;53781;51.090;5.884;2022-08-23T00:40:04;20.33;66.01
66873;HTU21D;53781;51.090;5.884;2022-08-23T00:40:19;20.33;66.02
66873;HTU21D;53781;51.090;5.884;2022-08-23T00:40:33;20.33;66.04
66873;HTU21D;53781;51.090;5.884;2022-08-23T00:40:51;20.34;66.05
66873;HTU21D;53781;51.090;5.884;2022-08-23T00:41:06;20.34;66.01
66873;HTU21D;53781;51.090;5.884;2022-08-23T00:41:21;20.32;66.07
66873;HTU21D;53781;51.090;5.884;2022-08-23T00:41:37;20.32;66.06
66873;HTU21D;53781;51.090;5.884;2022-08-23T00:42:02;20.30;66.09
66873;HTU21D;53781;51.090;5.884;2022-08-23T00:42:49;20.30;66.13
66873;HTU21D;53781;51.090;5.884;2022-08-23T00:43:30;20.28;66.11
66873;HTU21D;53781;51.090;5.884;2022-08-23T00:44:18;20.29;66.08
66873;HTU21D;53781;51.090;5.884;2022-08-23T00:44:55;20.26;66.14
66873;HTU21D;53781;51.090;5.884;2022-08-23T00:45:50;20.27;66.19
66873;HTU21D;53781;51.090;5.884;2022-08-23T00:46:58;20.22;66.20
66873;HTU21D;53781;51.090;5.884;2022-08-23T00:47:32;20.22;66.24
66873;HTU21D;53781;51.090;5.884;2022-08-23T00:47:54;20.20;66.25
66873;HTU21D;53781;51.090;5.884;2022-08-23T00:48:11;20.21;66.27
66873;HTU21D;53781;51.090;5.884;2022-08-23T00:48:28;20.20;66.32
66873;HTU21D;53781;51.090;5.884;2022-08-23T00:48:44;20.20;66.33
66873;HTU21D;53781;51.090;5.884;2022-08-23T00:49:03;20.18;66.34
66873;HTU21D;53781;51.090;5.884;2022-08-23T00:49:20;20.17;66.31
66873;HTU21D;53781;51.090;5.884;2022-08-23T00:49:36;20.19;66.28
66873;HTU21D;53781;51.090;5.884;2022-08-23T00:50:26;20.19;66.28
66873;HTU21D;53781;51.090;5.884;2022-08-23T00:51:04;20.16;66.37
66873;HTU21D;53781;51.090;5.884;2022-08-23T00:51:52;20.14;66.42
66873;HTU21D;53781;51.090;5.884;2022-08-23T00:52:25;20.13;66.46
66873;HTU21D;53781;51.090;5.884;2022-08-23T00:53:08;20.13;66.53
66873;HTU21D;53781;51.090;5.884;2022-08-23T00:53:33;20.14;66.52
66873;HTU21D;53781;51.090;5.884;2022-08-23T00:53:53;20.16;66.44
66873;HTU21D;53781;51.090;5.884;2022-08-23T00:54:10;20.17;66.44
66873;HTU21D;53781;51.090;5.884;2022-08-23T00:54:28;20.17;66.37
66873;HTU21D;53781;51.090;5.884;2022-08-23T00:54:44;20.16;66.38
66873;HTU21D;53781;51.090;5.884;2022-08-23T00:55:01;20.16;66.37
66873;HTU21D;53781;51.090;5.884;2022-08-23T00:55:16;20.15;66.42
66873;HTU21D;53781;51.090;5.884;2022-08-23T00:55:33;20.15;66.35
66873;HTU21D;53781;51.090;5.884;2022-08-23T00:55:54;20.15;66.39
66873;HTU21D;53781;51.090;5.884;2022-08-23T00:56:12;20.15;66.40
66873;HTU21D;53781;51.090;5.884;2022-08-23T00:56:33;20.14;66.39
66873;HTU21D;53781;51.090;5.884;2022-08-23T00:56:50;20.14;66.44
66873;HTU21D;53781;51.090;5.884;2022-08-23T00:57:11;20.13;66.42
66873;HTU21D;53781;51.090;5.884;2022-08-23T00:57:29;20.13;66.43
66873;HTU21D;53781;51.090;5.884;2022-08-23T00:57:44;20.13;66.45
66873;HTU21D;53781;51.090;5.884;2022-08-23T00:58:00;20.12;66.42
66873;HTU21D;53781;51.090;5.884;2022-08-23T00:58:18;20.12;66.46
66873;HTU21D;53781;51.090;5.884;2022-08-23T00:58:34;20.10;66.46
66873;HTU21D;53781;51.090;5.884;2022-08-23T00:58:49;20.11;66.46
66873;HTU21D;53781;51.090;5.884;2022-08-23T00:59:05;20.12;66.49
66873;HTU21D;53781;51.090;5.884;2022-08-23T00:59:21;20.09;66.52
66873;HTU21D;53781;51.090;5.884;2022-08-23T00:59:36;20.07;66.59
66873;HTU21D;53781;51.090;5.884;2022-08-23T00:59:50;20.09;66.55
66873;HTU21D;53781;51.090;5.884;2022-08-23T01:00:07;20.09;66.55
66873;HTU21D;53781;51.090;5.884;2022-08-23T01:00:23;20.07;66.55
66873;HTU21D;53781;51.090;5.884;2022-08-23T01:00:38;20.07;66.59
66873;HTU21D;53781;51.090;5.884;2022-08-23T01:00:57;20.06;66.56
66873;HTU21D;53781;51.090;5.884;2022-08-23T01:01:14;20.05;66.59
66873;HTU21D;53781;51.090;5.884;2022-08-23T01:01:29;20.05;66.59
66873;HTU21D;53781;51.090;5.884;2022-08-23T01:01:44;20.04;66.62
66873;HTU21D;53781;51.090;5.884;2022-08-23T01:02:00;20.04;66.69
66873;HTU21D;53781;51.090;5.884;2022-08-23T01:02:16;20.02;66.69
66873;HTU21D;53781;51.090;5.884;2022-08-23T01:02:31;20.03;66.72
66873;HTU21D;53781;51.090;5.884;2022-08-23T01:02:48;20.03;66.79
66873;HTU21D;53781;51.090;5.884;2022-08-23T01:03:07;20.02;66.78
66873;HTU21D;53781;51.090;5.884;2022-08-23T01:03:25;20.02;66.84
66873;HTU21D;53781;51.090;5.884;2022-08-23T01:03:44;20.02;66.82
66873;HTU21D;53781;51.090;5.884;2022-08-23T01:04:00;20.01;66.81
66873;HTU21D;53781;51.090;5.884;2022-08-23T01:04:16;20.00;66.84
66873;HTU21D;53781;51.090;5.884;2022-08-23T01:04:38;20.01;66.82
66873;HTU21D;53781;51.090;5.884;2022-08-23T01:04:57;20.00;66.78
66873;HTU21D;53781;51.090;5.884;2022-08-23T01:05:13;20.01;66.85
66873;HTU21D;53781;51.090;5.884;2022-08-23T01:05:46;19.98;66.83
66873;HTU21D;53781;51.090;5.884;2022-08-23T01:06:18;19.98;66.82
66873;HTU21D;53781;51.090;5.884;2022-08-23T01:07:58;19.96;66.94
66873;HTU21D;53781;51.090;5.884;2022-08-23T01:08:15;19.94;66.97
66873;HTU21D;53781;51.090;5.884;2022-08-23T01:08:32;19.94;66.98
66873;HTU21D;53781;51.090;5.884;2022-08-23T01:08:52;19.91;66.99
66873;HTU21D;53781;51.090;5.884;2022-08-23T01:09:14;19.94;67.04
66873;HTU21D;53781;51.090;5.884;2022-08-23T01:09:29;19.91;67.01
66873;HTU21D;53781;51.090;5.884;2022-08-23T01:09:47;19.91;67.05
66873;HTU21D;53781;51.090;5.884;2022-08-23T01:10:11;19.91;67.14
66873;HTU21D;53781;51.090;5.884;2022-08-23T01:10:32;19.90;67.15
66873;HTU21D;53781;51.090;5.884;2022-08-23T01:10:58;19.90;67.18
66873;HTU21D;53781;51.090;5.884;2022-08-23T01:11:21;19.90;67.22
66873;HTU21D;53781;51.090;5.884;2022-08-23T01:11:47;19.90;67.20
66873;HTU21D;53781;51.090;5.884;2022-08-23T01:12:10;19.89;67.28
66873;HTU21D;53781;51.090;5.884;2022-08-23T01:12:41;19.88;67.23
66873;HTU21D;53781;51.090;5.884;2022-08-23T01:13:11;19.89;67.28
66873;HTU21D;53781;51.090;5.884;2022-08-23T01:13:44;19.87;67.33
66873;HTU21D;53781;51.090;5.884;2022-08-23T01:14:17;19.86;67.34
66873;HTU21D;53781;51.090;5.884;2022-08-23T01:14:50;19.87;67.37
66873;HTU21D;53781;51.090;5.884;2022-08-23T01:15:32;19.85;67.42
66873;HTU21D;53781;51.090;5.884;2022-08-23T01:16:10;19.87;67.48
66873;HTU21D;53781;51.090;5.884;2022-08-23T01:16:52;19.85;67.45
66873;HTU21D;53781;51.090;5.884;2022-08-23T01:17:25;19.85;67.44
66873;HTU21D;53781;51.090;5.884;2022-08-23T01:17:48;19.84;67.43
66873;HTU21D;53781;51.090;5.884;2022-08-23T01:18:07;19.84;67.39
66873;HTU21D;53781;51.090;5.884;2022-08-23T01:18:26;19.84;67.38
66873;HTU21D;53781;51.090;5.884;2022-08-23T01:18:43;19.84;67.39
66873;HTU21D;53781;51.090;5.884;2022-08-23T01:19:02;19.82;67.43
66873;HTU21D;53781;51.090;5.884;2022-08-23T01:19:37;19.82;67.43
66873;HTU21D;53781;51.090;5.884;2022-08-23T01:19:56;19.82;67.52
66873;HTU21D;53781;51.090;5.884;2022-08-23T01:20:17;19.80;67.51
66873;HTU21D;53781;51.090;5.884;2022-08-23T01:20:53;19.80;67.56
66873;HTU21D;53781;51.090;5.884;2022-08-23T01:21:20;19.80;67.59
66873;HTU21D;53781;51.090;5.884;2022-08-23T01:21:51;19.80;67.55
66873;HTU21D;53781;51.090;5.884;2022-08-23T01:22:23;19.80;67.49
66873;HTU21D;53781;51.090;5.884;2022-08-23T01:23:20;19.79;67.48
66873;HTU21D;53781;51.090;5.884;2022-08-23T01:23:52;19.77;67.46
66873;HTU21D;53781;51.090;5.884;2022-08-23T01:24:10;19.79;67.45
66873;HTU21D;53781;51.090;5.884;2022-08-23T01:24:27;19.77;67.46
66873;HTU21D;53781;51.090;5.884;2022-08-23T01:24:43;19.76;67.51
66873;HTU21D;53781;51.090;5.884;2022-08-23T01:25:02;19.74;67.46
66873;HTU21D;53781;51.090;5.884;2022-08-23T01:25:22;19.74;67.44
66873;HTU21D;53781;51.090;5.884;2022-08-23T01:25:37;19.74;67.52
66873;HTU21D;53781;51.090;5.884;2022-08-23T01:25:53;19.74;67.50
66873;HTU21D;53781;51.090;5.884;2022-08-23T01:26:10;19.73;67.52
66873;HTU21D;53781;51.090;5.884;2022-08-23T01:26:26;19.74;67.52
66873;HTU21D;53781;51.090;5.884;2022-08-23T01:26:42;19.72;67.53
66873;HTU21D;53781;51.090;5.884;2022-08-23T01:26:57;19.72;67.52
66873;HTU21D;53781;51.090;5.884;2022-08-23T01:27:12;19.71;67.56
66873;HTU21D;53781;51.090;5.884;2022-08-23T01:27:28;19.70;67.56
66873;HTU21D;53781;51.090;5.884;2022-08-23T01:27:44;19.71;67.58
66873;HTU21D;53781;51.090;5.884;2022-08-23T01:28:02;19.70;67.65
66873;HTU21D;53781;51.090;5.884;2022-08-23T01:28:18;19.70;67.63
66873;HTU21D;53781;51.090;5.884;2022-08-23T01:28:34;19.72;67.60
66873;HTU21D;53781;51.090;5.884;2022-08-23T01:28:50;19.69;67.65
66873;HTU21D;53781;51.090;5.884;2022-08-23T01:29:06;19.68;67.62
66873;HTU21D;53781;51.090;5.884;2022-08-23T01:29:21;19.68;67.62
66873;HTU21D;53781;51.090;5.884;2022-08-23T01:29:39;19.70;67.59
66873;HTU21D;53781;51.090;5.884;2022-08-23T01:29:54;19.68;67.64
66873;HTU21D;53781;51.090;5.884;2022-08-23T01:30:13;19.69;67.60
66873;HTU21D;53781;51.090;5.884;2022-08-23T01:30:30;19.68;67.57
66873;HTU21D;53781;51.090;5.884;2022-08-23T01:30:47;19.68;67.55
66873;HTU21D;53781;51.090;5.884;2022-08-23T01:31:03;19.68;67.59
66873;HTU21D;53781;51.090;5.884;2022-08-23T01:31:21;19.67;67.56
66873;HTU21D;53781;51.090;5.884;2022-08-23T01:31:36;19.69;67.58
66873;HTU21D;53781;51.090;5.884;2022-08-23T01:31:52;19.67;67.52
66873;HTU21D;53781;51.090;5.884;2022-08-23T01:32:09;19.69;67.64
66873;HTU21D;53781;51.090;5.884;2022-08-23T01:32:24;19.67;67.53
66873;HTU21D;53781;51.090;5.884;2022-08-23T01:32:51;19.68;67.52
66873;HTU21D;53781;51.090;5.884;2022-08-23T01:33:07;19.66;67.53
66873;HTU21D;53781;51.090;5.884;2022-08-23T01:33:22;19.66;67.52
66873;HTU21D;53781;51.090;5.884;2022-08-23T01:33:38;19.67;67.55
66873;HTU21D;53781;51.090;5.884;2022-08-23T01:33:58;19.63;67.59
66873;HTU21D;53781;51.090;5.884;2022-08-23T01:34:14;19.66;67.62
66873;HTU21D;53781;51.090;5.884;2022-08-23T01:34:31;19.63;67.59
66873;HTU21D;53781;51.090;5.884;2022-08-23T01:34:46;19.65;67.58
66873;HTU21D;53781;51.090;5.884;2022-08-23T01:35:01;19.66;67.62
66873;HTU21D;53781;51.090;5.884;2022-08-23T01:35:18;19.65;67.61
66873;HTU21D;53781;51.090;5.884;2022-08-23T01:35:47;19.66;67.63
66873;HTU21D;53781;51.090;5.884;2022-08-23T01:36:03;19.65;67.62
66873;HTU21D;53781;51.090;5.884;2022-08-23T01:36:19;19.66;67.59
66873;HTU21D;53781;51.090;5.884;2022-08-23T01:36:37;19.65;67.60
66873;HTU21D;53781;51.090;5.884;2022-08-23T01:36:53;19.63;67.56
66873;HTU21D;53781;51.090;5.884;2022-08-23T01:37:08;19.65;67.52
66873;HTU21D;53781;51.090;5.884;2022-08-23T01:37:23;19.65;67.49
66873;HTU21D;53781;51.090;5.884;2022-08-23T01:37:39;19.63;67.46
66873;HTU21D;53781;51.090;5.884;2022-08-23T01:37:55;19.65;67.48
66873;HTU21D;53781;51.090;5.884;2022-08-23T01:38:11;19.65;67.50
66873;HTU21D;53781;51.090;5.884;2022-08-23T01:38:27;19.66;67.49
66873;HTU21D;53781;51.090;5.884;2022-08-23T01:38:41;19.63;67.49
66873;HTU21D;53781;51.090;5.884;2022-08-23T01:38:56;19.65;67.45
66873;HTU21D;53781;51.090;5.884;2022-08-23T01:39:11;19.63;67.46
66873;HTU21D;53781;51.090;5.884;2022-08-23T01:39:26;19.63;67.52
66873;HTU21D;53781;51.090;5.884;2022-08-23T01:39:41;19.63;67.52
66873;HTU21D;53781;51.090;5.884;2022-08-23T01:39:56;19.63;67.56
66873;HTU21D;53781;51.090;5.884;2022-08-23T01:40:12;19.63;67.52
66873;HTU21D;53781;51.090;5.884;2022-08-23T01:40:28;19.62;67.56
66873;HTU21D;53781;51.090;5.884;2022-08-23T01:40:43;19.65;67.53
66873;HTU21D;53781;51.090;5.884;2022-08-23T01:40:58;19.65;67.52
66873;HTU21D;53781;51.090;5.884;2022-08-23T01:41:13;19.65;67.52
66873;HTU21D;53781;51.090;5.884;2022-08-23T01:41:28;19.63;67.50
66873;HTU21D;53781;51.090;5.884;2022-08-23T01:41:43;19.63;67.50
66873;HTU21D;53781;51.090;5.884;2022-08-23T01:41:58;19.63;67.50
66873;HTU21D;53781;51.090;5.884;2022-08-23T01:42:13;19.62;67.49
66873;HTU21D;53781;51.090;5.884;2022-08-23T01:42:28;19.63;67.47
66873;HTU21D;53781;51.090;5.884;2022-08-23T01:42:43;19.63;67.49
66873;HTU21D;53781;51.090;5.884;2022-08-23T01:43:00;19.63;67.46
66873;HTU21D;53781;51.090;5.884;2022-08-23T01:43:17;19.63;67.47
66873;HTU21D;53781;51.090;5.884;2022-08-23T01:43:35;19.65;67.44
66873;HTU21D;53781;51.090;5.884;2022-08-23T01:43:50;19.63;67.49
66873;HTU21D;53781;51.090;5.884;2022-08-23T01:44:07;19.62;67.49
66873;HTU21D;53781;51.090;5.884;2022-08-23T01:44:23;19.62;67.54
66873;HTU21D;53781;51.090;5.884;2022-08-23T01:44:38;19.61;67.54
66873;HTU21D;53781;51.090;5.884;2022-08-23T01:44:53;19.62;67.51
66873;HTU21D;53781;51.090;5.884;2022-08-23T01:45:12;19.62;67.53
66873;HTU21D;53781;51.090;5.884;2022-08-23T01:45:29;19.62;67.55
66873;HTU21D;53781;51.090;5.884;2022-08-23T01:45:46;19.63;67.56
66873;HTU21D;53781;51.090;5.884;2022-08-23T01:46:11;19.62;67.55
66873;HTU21D;53781;51.090;5.884;2022-08-23T01:46:26;19.62;67.52
66873;HTU21D;53781;51.090;5.884;2022-08-23T01:46:44;19.63;67.53
66873;HTU21D;53781;51.090;5.884;2022-08-23T01:46:59;19.63;67.52
66873;HTU21D;53781;51.090;5.884;2022-08-23T01:47:14;19.63;67.49
66873;HTU21D;53781;51.090;5.884;2022-08-23T01:47:29;19.63;67.52
66873;HTU21D;53781;51.090;5.884;2022-08-23T01:47:45;19.65;67.49
66873;HTU21D;53781;51.090;5.884;2022-08-23T01:48:01;19.61;67.46
66873;HTU21D;53781;51.090;5.884;2022-08-23T01:48:18;19.61;67.50
66873;HTU21D;53781;51.090;5.884;2022-08-23T01:48:33;19.60;67.46
66873;HTU21D;53781;51.090;5.884;2022-08-23T01:48:50;19.62;67.44
66873;HTU21D;53781;51.090;5.884;2022-08-23T01:49:05;19.63;67.39
66873;HTU21D;53781;51.090;5.884;2022-08-23T01:49:20;19.61;67.39
66873;HTU21D;53781;51.090;5.884;2022-08-23T01:49:35;19.62;67.43
66873;HTU21D;53781;51.090;5.884;2022-08-23T01:49:50;19.61;67.37
66873;HTU21D;53781;51.090;5.884;2022-08-23T01:50:06;19.61;67.39
66873;HTU21D;53781;51.090;5.884;2022-08-23T01:50:23;19.59;67.39
66873;HTU21D;53781;51.090;5.884;2022-08-23T01:50:38;19.60;67.41
66873;HTU21D;53781;51.090;5.884;2022-08-23T01:50:53;19.60;67.45
66873;HTU21D;53781;51.090;5.884;2022-08-23T01:51:08;19.60;67.52
66873;HTU21D;53781;51.090;5.884;2022-08-23T01:51:24;19.59;67.49
66873;HTU21D;53781;51.090;5.884;2022-08-23T01:51:39;19.60;67.53
66873;HTU21D;53781;51.090;5.884;2022-08-23T01:51:54;19.59;67.58
66873;HTU21D;53781;51.090;5.884;2022-08-23T01:52:09;19.60;67.59
66873;HTU21D;53781;51.090;5.884;2022-08-23T01:52:24;19.60;67.68
66873;HTU21D;53781;51.090;5.884;2022-08-23T01:52:41;19.60;67.55
66873;HTU21D;53781;51.090;5.884;2022-08-23T01:52:56;19.60;67.65
66873;HTU21D;53781;51.090;5.884;2022-08-23T01:53:13;19.60;67.62
66873;HTU21D;53781;51.090;5.884;2022-08-23T01:53:33;19.60;67.67
66873;HTU21D;53781;51.090;5.884;2022-08-23T01:53:48;19.62;67.71
66873;HTU21D;53781;51.090;5.884;2022-08-23T01:54:04;19.62;67.75
66873;HTU21D;53781;51.090;5.884;2022-08-23T01:54:19;19.65;67.75
66873;HTU21D;53781;51.090;5.884;2022-08-23T01:54:35;19.62;67.70
66873;HTU21D;53781;51.090;5.884;2022-08-23T01:54:49;19.65;67.75
66873;HTU21D;53781;51.090;5.884;2022-08-23T01:55:05;19.66;67.72
66873;HTU21D;53781;51.090;5.884;2022-08-23T01:55:20;19.68;67.76
66873;HTU21D;53781;51.090;5.884;2022-08-23T01:55:39;19.67;67.67
66873;HTU21D;53781;51.090;5.884;2022-08-23T01:55:55;19.68;67.69
66873;HTU21D;53781;51.090;5.884;2022-08-23T01:56:10;19.70;67.64
66873;HTU21D;53781;51.090;5.884;2022-08-23T01:56:26;19.70;67.64
66873;HTU21D;53781;51.090;5.884;2022-08-23T01:56:41;19.72;67.65